Latest Weather Observations for Coonamble

IDN60801

Issued at 6:33 pm EST Sunday 24 July 2016 (issued every 30 minutes, with the page automatically refreshed every 10 minutes)

About weather observations | Map of weather stations | Latest weather observations for NSW | Other Formats
Station Details ID: 051161 Name: COONAMBLE AIRPORT AWS Lat: -30.98 Lon: 148.38 Height: 181.3 m
Data from the previous 72 hours. | See also: Recent months at Coonamble
Date/Time
EST
Temp
°C
App
Temp
°C
Dew
Point
°C
Rel
Hum
%
Delta-T
°C
Wind Press
QNH
hPa
Press
MSL
hPa
Rain since
9am
mm
Dir  Spd
km/h
Gust
km/h
Spd
kts
Gust
kts
24/06:30pm 10.8 9.2 8.7 87 1.0 N 7 9 4 5 1015.4 1015.6 0.0
24/06:00pm 11.0 9.6 9.6 91 0.7 NW 7 9 4 5 1015.4 1015.6 0.0
24/05:30pm 11.4 9.3 8.1 80 1.6 N 9 11 5 6 1015.1 1015.3 0.0
24/05:00pm 11.7 9.0 7.4 75 2.1 N 11 17 6 9 1014.5 1014.7 0.0
24/04:30pm 12.2 9.1 7.1 71 2.5 N 13 19 7 10 1014.3 1014.5 0.0
24/04:00pm 12.2 8.6 6.9 70 2.6 N 15 22 8 12 1014.2 1014.4 0.0
24/03:30pm 12.3 8.0 6.8 69 2.7 N 19 28 10 15 1014.2 1014.4 0.0
24/03:00pm 12.4 8.5 6.9 69 2.7 N 17 22 9 12 1014.7 1014.9 0.0
24/02:30pm 12.7 8.2 6.1 64 3.1 N 19 30 10 16 1015.0 1015.2 0.0
24/02:00pm 13.6 9.2 6.7 63 3.4 NNW 19 30 10 16 1015.3 1015.5 0.0
24/01:30pm 13.7 9.8 7.2 65 3.2 N 17 28 9 15 1015.5 1015.7 0.0
24/01:00pm 12.9 8.9 6.7 66 3.0 N 17 24 9 13 1015.9 1016.1 0.0
24/12:30pm 12.5 9.1 7.6 72 2.4 N 15 20 8 11 1016.2 1016.4 0.0
24/12:00pm 11.3 7.6 6.2 71 2.4 NNE 15 20 8 11 1017.0 1017.2 0.0
24/11:30am 11.2 8.2 7.5 78 1.8 NNE 13 17 7 9 1017.8 1017.9 0.0
24/11:00am 10.9 8.4 8.3 84 1.3 NE 11 15 6 8 1018.2 1018.4 0.0
24/10:30am 10.4 7.8 9.5 94 0.5 NNE 13 19 7 10 1018.6 1018.8 0.0
24/10:00am 9.8 7.6 9.3 97 0.2 NE 11 15 6 8 1018.9 1019.1 0.0
24/09:30am 9.0 6.2 8.6 97 0.2 NE 13 17 7 9 1018.4 1018.6 0.0
24/09:00am 8.3 6.2 8.2 99 0.0 ENE 9 13 5 7 1018.0 1018.1 0.0
24/08:30am 7.0 4.2 6.9 99 0.0 ENE 11 13 6 7 1017.9 1018.0 0.0
24/08:00am 6.1 4.8 6.0 99 0.0 NE 2 9 1 5 1018.0 1018.1 0.0
24/07:30am 4.4 3.1 4.3 99 0.0 CALM 0 0 0 0 1017.8 1017.9 0.0
24/07:00am 3.5 2.1 3.4 99 0.0 CALM 0 0 0 0 1017.0 1017.2 0.0
24/06:30am 4.1 2.8 4.0 99 0.0 CALM 0 0 0 0 1016.9 1017.1 0.0
24/06:00am 4.3 2.3 4.2 99 0.0 N 4 7 2 4 1016.7 1016.9 0.0
24/05:30am 4.8 2.8 4.5 98 0.1 ESE 4 6 2 3 1015.9 1016.1 0.0
24/05:00am 4.8 2.4 4.5 98 0.1 E 6 7 3 4 1015.5 1015.7 0.0
24/04:30am 5.0 2.5 4.7 98 0.1 ESE 7 9 4 5 1015.7 1015.9 0.0
24/04:00am 5.1 2.2 4.8 98 0.1 SE 9 9 5 5 1016.0 1016.2 0.0
24/03:30am 5.6 4.5 5.3 98 0.1 CALM 0 0 0 0 1015.9 1016.1 0.0
24/03:00am 6.1 5.2 6.0 99 0.0 CALM 0 0 0 0 1016.2 1016.4 0.0
24/02:30am 6.0 5.0 5.7 98 0.1 CALM 0 0 0 0 1015.5 1015.7 0.0
24/02:00am 5.4 4.3 5.1 98 0.1 CALM 0 0 0 0 1016.4 1016.6 0.0
24/01:30am 5.5 4.4 5.2 98 0.1 CALM 0 6 0 3 1017.0 1017.2 0.0
24/01:00am 5.5 4.0 5.2 98 0.1 SW 2 6 1 3 1016.9 1017.1 0.0
24/12:30am 6.2 4.1 5.9 98 0.1 SW 6 7 3 4 1017.4 1017.5 0.0
24/12:00am 6.2 3.9 5.9 98 0.1 SSW 7 7 4 4 1017.5 1017.6 0.0
 
Date/Time
EST
Temp
°C
App
Temp
°C
Dew
Point
°C
Rel
Hum
%
Delta-T
°C
Wind Press
QNH
hPa
Press
MSL
hPa
Rain since
9am
mm
Dir  Spd
km/h
Gust
km/h
Spd
kts
Gust
kts
23/11:30pm 6.0 4.3 5.7 98 0.1 SSW 4 7 2 4 1017.0 1017.2 0.0
23/11:00pm 5.5 3.7 5.2 98 0.1 SW 4 6 2 3 1016.9 1017.1 0.0
23/10:30pm 5.9 3.8 5.6 98 0.1 SW 6 7 3 4 1017.0 1017.2 0.0
23/10:00pm 6.0 4.3 5.7 98 0.1 WSW 4 6 2 3 1017.2 1017.4 0.0
23/09:30pm 5.7 3.5 5.3 97 0.2 WSW 6 6 3 3 1017.0 1017.2 0.0
23/09:00pm 7.3 5.4 6.9 97 0.2 SSW 6 7 3 4 1016.6 1016.8 0.0
23/08:30pm 7.0 4.9 6.6 97 0.2 SSW 7 9 4 5 1016.5 1016.7 0.0
23/08:00pm 7.6 5.6 7.2 97 0.2 SSW 7 9 4 5 1016.4 1016.6 0.0
23/07:30pm 7.7 5.4 7.3 97 0.2 SSW 9 11 5 6 1016.3 1016.5 0.0
23/07:00pm 8.0 5.1 6.3 89 0.8 SSW 11 13 6 7 1016.2 1016.4 0.0
23/06:30pm 8.6 6.2 6.9 89 0.8 SSW 9 11 5 6 1016.0 1016.2 0.0
23/06:00pm 8.8 5.4 6.1 83 1.2 SW 13 15 7 8 1015.5 1015.7 0.0
23/05:30pm 9.8 6.1 6.3 79 1.6 SW 15 17 8 9 1015.4 1015.6 0.0
23/05:00pm 12.0 7.4 6.7 70 2.5 SW 20 28 11 15 1015.1 1015.3 0.0
23/04:30pm 12.6 7.2 6.4 66 3.0 SW 24 32 13 17 1014.4 1014.6 0.0
23/04:00pm 13.2 8.7 6.1 62 3.4 WSW 19 28 10 15 1014.3 1014.5 0.0
23/03:30pm 13.1 8.7 6.7 65 3.1 WSW 19 26 10 14 1013.9 1014.1 0.0
23/03:00pm 13.3 7.7 5.5 59 3.7 SW 24 33 13 18 1013.5 1013.7 0.0
23/02:30pm 14.9 10.2 6.2 56 4.2 WSW 20 32 11 17 1013.2 1013.3 0.0
23/02:00pm 14.0 9.1 6.8 62 3.5 WSW 22 33 12 18 1013.0 1013.1 0.0
23/01:30pm 14.8 10.3 7.1 60 3.8 WSW 20 28 11 15 1012.9 1013.0 0.0
23/01:00pm 14.1 8.4 4.9 54 4.3 WSW 24 35 13 19 1013.1 1013.2 0.0
23/12:30pm 14.3 8.9 6.4 59 3.8 WSW 24 35 13 19 1013.3 1013.4 0.0
23/12:00pm 14.4 9.1 7.0 61 3.6 WSW 24 33 13 18 1013.4 1013.6 0.0
23/11:30am 14.1 8.7 6.2 59 3.8 WSW 24 32 13 17 1013.8 1014.0 0.0
23/11:00am 13.7 8.4 7.0 64 3.3 WSW 24 39 13 21 1013.7 1013.9 0.0
23/10:30am 14.0 8.7 6.8 62 3.5 WSW 24 35 13 19 1013.6 1013.8 0.0
23/10:00am 13.9 9.2 7.7 66 3.1 WSW 22 35 12 19 1013.5 1013.7 0.0
23/09:30am 13.4 7.4 7.0 65 3.1 WSW 28 39 15 21 1013.2 1013.3 0.0
23/09:00am 13.1 8.8 7.1 67 2.9 WSW 19 28 10 15 1012.8 1012.9 0.0
23/08:30am 12.3 9.6 8.8 79 1.8 WNW 13 20 7 11 1012.3 1012.4 0.0
23/08:00am 10.7 8.4 9.1 90 0.8 WNW 11 11 6 6 1011.9 1012.0 0.0
23/07:30am 9.2 6.7 8.0 92 0.6 W 11 15 6 8 1011.5 1011.7 0.0
23/07:00am 9.5 5.7 7.6 88 0.9 W 17 20 9 11 1011.2 1011.4 0.0
23/06:30am 10.1 6.9 6.8 80 1.6 W 13 13 7 7 1010.6 1010.8 0.0
23/06:00am 12.2 8.0 5.8 65 3.0 WSW 17 24 9 13 1010.1 1010.3 0.0
23/05:30am 12.1 8.4 6.2 67 2.8 WSW 15 20 8 11 1009.7 1009.9 0.0
23/05:00am 12.9 8.4 6.0 63 3.3 WSW 19 26 10 14 1009.1 1009.3 0.0
23/04:30am 14.0 9.1 7.1 63 3.4 WSW 22 32 12 17 1008.8 1009.0 0.0
23/04:00am 14.6 9.9 7.9 64 3.4 WSW 22 32 12 17 1008.3 1008.4 0.0
23/03:30am 15.3 9.5 8.1 62 3.6 WSW 28 41 15 22 1007.8 1007.9 0.0
23/03:00am 16.6 8.9 8.8 60 4.1 SW 39 59 21 32 1007.4 1007.5 0.0
23/02:58am 16.9 9.2 8.6 58 4.3 SW 39 59 21 32 1007.3 1007.4 0.0
23/02:57am 16.9 9.6 8.8 59 4.2 SW 37 50 20 27 1007.3 1007.4 0.0
23/02:35am 18.9 15.4 15.4 80 2.1 WNW 28 46 15 25 1006.5 1006.6 0.0
23/02:30am 18.3 15.4 16.1 87 1.3 WNW 26 35 14 19 1006.4 1006.5 0.0
23/02:00am 18.1 15.8 16.6 91 0.9 NW 24 32 13 17 1006.0 1006.1 0.0
23/01:30am 18.4 16.2 16.9 91 0.9 NW 24 30 13 16 1005.9 1006.0 0.0
23/01:00am 18.7 16.2 17.2 91 0.9 NNW 26 33 14 18 1005.9 1006.0 0.0
23/12:30am 19.1 16.7 17.4 90 1.0 NNW 26 33 14 18 1005.7 1005.9 0.0
23/12:00am 19.3 17.2 18.1 93 0.7 NNW 26 35 14 19 1006.1 1006.2 0.0
 
Date/Time
EST
Temp
°C
App
Temp
°C
Dew
Point
°C
Rel
Hum
%
Delta-T
°C
Wind Press
QNH
hPa
Press
MSL
hPa
Rain since
9am
mm
Dir  Spd
km/h
Gust
km/h
Spd
kts
Gust
kts
22/11:30pm 19.7 17.0 18.4 92 0.8 NNW 30 39 16 21 1006.4 1006.5 0.0
22/11:00pm 19.9 17.9 19.1 95 0.5 NNW 28 37 15 20 1006.5 1006.6 0.0
22/10:30pm 19.9 18.0 19.4 97 0.3 NNW 28 35 15 19 1006.7 1006.8 0.0
22/10:00pm 19.7 18.1 19.2 97 0.3 NNW 26 33 14 18 1006.9 1007.0 0.0
22/09:30pm 19.6 18.4 19.3 98 0.2 NNW 24 32 13 17 1007.3 1007.4 0.0
22/09:00pm 18.8 19.4 18.5 98 0.2 NNW 13 19 7 10 1007.7 1007.8 0.0
22/08:30pm 19.5 19.6 19.2 98 0.2 NNW 17 22 9 12 1007.7 1007.8 0.0
22/08:00pm 20.0 20.0 19.7 98 0.2 NNW 19 24 10 13 1007.5 1007.6 0.0
22/07:30pm 20.2 20.3 19.9 98 0.2 NNW 19 24 10 13 1007.5 1007.6 0.0
22/07:00pm 19.9 20.2 19.6 98 0.2 NNW 17 20 9 11 1007.4 1007.5 0.0
22/06:30pm 20.0 20.3 19.7 98 0.2 NNW 17 20 9 11 1007.2 1007.3 0.0
22/06:00pm 20.3 21.2 20.0 98 0.2 N 15 19 8 10 1007.1 1007.2 0.0
22/05:30pm 20.5 21.5 20.2 98 0.2 NNW 15 19 8 10 1007.2 1007.3 0.0
22/05:00pm 21.9 23.1 21.4 97 0.3 NNW 17 20 9 11 1006.9 1007.0 0.0
22/04:30pm 22.3 23.7 21.8 97 0.3 NNW 17 22 9 12 1007.3 1007.4 0.0
22/04:00pm 23.1 24.2 21.9 93 0.8 NW 19 24 10 13 1007.8 1007.9 0.0
22/03:30pm 22.7 23.0 21.5 93 0.8 NW 22 28 12 15 1008.1 1008.2 0.0
22/03:00pm 22.8 22.1 21.1 90 1.1 NW 26 33 14 18 1008.3 1008.4 0.0
22/02:30pm 23.5 22.3 21.6 89 1.3 NNW 30 37 16 20 1008.4 1008.5 0.0
22/02:00pm 22.2 20.7 21.7 97 0.3 NNW 32 43 17 23 1008.8 1009.0 0.0
22/01:30pm 22.3 21.3 22.0 98 0.2 NNW 30 37 16 20 1009.4 1009.6 0.0
22/01:00pm 21.7 21.6 21.5 99 0.1 NNW 24 32 13 17 1010.1 1010.3 0.0
22/12:30pm 21.0 20.5 20.8 99 0.1 NNW 24 32 13 17 1010.8 1011.0 0.0
22/12:00pm 20.7 20.5 20.5 99 0.1 NNW 22 30 12 16 1011.5 1011.7 0.0
22/11:30am 19.7 19.5 19.7 100 0.0 NNW 20 28 11 15 1012.3 1012.4 0.0
22/11:00am 18.9 18.3 18.9 100 0.0 N 20 26 11 14 1012.9 1013.0 0.0
22/10:30am 18.3 17.6 18.3 100 0.0 N 19 26 10 14 1013.2 1013.3 0.0
22/10:00am 17.8 17.3 17.8 100 0.0 N 17 26 9 14 1013.7 1013.9 0.0
22/09:30am 17.5 16.9 17.5 100 0.0 N 17 20 9 11 1013.8 1014.0 0.0
22/09:00am 17.2 16.4 17.2 100 0.0 N 17 24 9 13 1013.8 1014.0 0.0
22/08:30am 16.9 16.4 16.9 100 0.0 NNE 15 19 8 10 1014.0 1014.2 0.0
22/08:00am 16.6 16.4 16.6 100 0.0 NNE 13 19 7 10 1014.0 1014.2 0.0
22/07:30am 16.3 16.3 16.3 100 0.0 NNE 11 15 6 8 1014.0 1014.2 0.0
22/07:00am 16.1 16.4 16.1 100 0.0 NNE 9 11 5 6 1014.0 1014.2 0.0
22/06:30am 16.1 16.4 16.1 100 0.0 NNE 9 11 5 6 1014.0 1014.2 0.0
22/06:00am 16.1 16.4 16.1 100 0.0 NNE 9 13 5 7 1014.0 1014.2 0.0
22/05:30am 15.9 16.2 15.9 100 0.0 NNE 9 13 5 7 1013.9 1014.1 0.0
22/05:00am 15.7 15.5 15.7 100 0.0 NNE 11 15 6 8 1014.0 1014.2 0.0
22/04:30am 15.7 15.1 15.7 100 0.0 NNE 13 17 7 9 1014.2 1014.4 0.0
22/04:00am 15.1 15.1 15.1 100 0.0 NNE 9 11 5 6 1014.5 1014.7 0.0
22/03:30am 14.8 15.0 14.8 100 0.0 NNE 7 9 4 5 1014.9 1015.1 0.0
22/03:00am 14.3 14.0 14.3 100 0.0 NE 9 11 5 6 1015.0 1015.2 0.0
22/02:30am 14.4 14.1 14.4 100 0.0 NNE 9 13 5 7 1015.2 1015.4 0.0
22/02:00am 14.4 14.1 14.4 100 0.0 N 9 13 5 7 1015.6 1015.8 0.0
22/01:30am 12.7 12.2 12.7 100 0.0 NNE 7 11 4 6 1015.9 1016.1 0.0
22/01:00am 12.9 12.1 12.9 100 0.0 ENE 9 11 5 6 1015.9 1016.1 0.0
22/12:30am 12.8 12.5 12.8 100 0.0 NNE 6 6 3 3 1016.1 1016.3 0.0
22/12:00am 13.5 13.3 13.5 100 0.0 NNE 7 9 4 5 1016.3 1016.5 0.0
 
Date/Time
EST
Temp
°C
App
Temp
°C
Dew
Point
°C
Rel
Hum
%
Delta-T
°C
Wind Press
QNH
hPa
Press
MSL
hPa
Rain since
9am
mm
Dir  Spd
km/h
Gust
km/h
Spd
kts
Gust
kts
21/11:30pm 14.3 14.5 14.3 100 0.0 NE 6 6 3 3 1016.5 1016.7 0.0
21/11:00pm 13.7 13.5 13.7 100 0.0 NE 7 9 4 5 1016.4 1016.6 0.0
21/10:30pm 12.5 12.0 12.5 100 0.0 NE 7 9 4 5 1016.6 1016.8 0.0
21/10:00pm 12.8 11.9 12.6 99 0.1 NE 9 11 5 6 1016.5 1016.7 0.0
21/09:30pm 12.6 12.6 12.4 99 0.1 N 4 7 2 4 1016.9 1017.1 0.0
21/09:00pm 13.5 14.6 13.5 100 0.0 CALM 0 0 0 0 1017.2 1017.4 0.0
21/08:30pm 15.0 16.6 15.0 100 0.0 CALM 0 0 0 0 1016.8 1017.0 0.0
21/08:00pm 15.3 16.2 15.1 99 0.1 N 4 6 2 3 1016.5 1016.7 0.0
21/07:30pm 15.5 15.9 15.3 99 0.1 N 7 7 4 4 1016.1 1016.3 0.0
21/07:00pm 16.0 16.2 15.8 99 0.1 N 9 9 5 5 1015.9 1016.1 0.0

Other Formats:

Comma delimited format used in spreadsheet applications
http://www.bom.gov.au/fwo/IDN60801/IDN60801.95718.axf

JavaScript Object Notation format (JSON) in row-major order
http://www.bom.gov.au/fwo/IDN60801/IDN60801.95718.json